sensor_id;sensor_type;location;lat;lon;timestamp;pressure;altitude;pressure_sealevel;temperature;humidity
8653;BME280;4364;52.426;9.424;2023-12-28T00:01:46;100328.66;;;8.34;80.12
8653;BME280;4364;52.426;9.424;2023-12-28T00:04:12;100337.59;;;8.40;79.38
8653;BME280;4364;52.426;9.424;2023-12-28T00:06:39;100325.16;;;8.39;78.96
8653;BME280;4364;52.426;9.424;2023-12-28T00:09:07;100341.94;;;8.41;78.71
8653;BME280;4364;52.426;9.424;2023-12-28T00:11:38;100328.13;;;8.42;78.08
8653;BME280;4364;52.426;9.424;2023-12-28T00:14:05;100333.03;;;8.56;77.47
8653;BME280;4364;52.426;9.424;2023-12-28T00:16:32;100343.34;;;8.59;76.57
8653;BME280;4364;52.426;9.424;2023-12-28T00:18:59;100337.63;;;8.55;77.54
8653;BME280;4364;52.426;9.424;2023-12-28T00:21:29;100359.56;;;8.53;77.71
8653;BME280;4364;52.426;9.424;2023-12-28T00:23:55;100363.66;;;8.56;77.83
8653;BME280;4364;52.426;9.424;2023-12-28T00:26:22;100362.56;;;8.62;78.29
8653;BME280;4364;52.426;9.424;2023-12-28T00:29:00;100367.97;;;8.67;80.54
8653;BME280;4364;52.426;9.424;2023-12-28T00:31:26;100371.78;;;8.56;82.30
8653;BME280;4364;52.426;9.424;2023-12-28T00:33:53;100374.75;;;8.60;84.07
8653;BME280;4364;52.426;9.424;2023-12-28T00:36:20;100372.03;;;8.44;87.61
8653;BME280;4364;52.426;9.424;2023-12-28T00:38:46;100366.03;;;8.22;91.44
8653;BME280;4364;52.426;9.424;2023-12-28T00:41:13;100364.94;;;8.18;93.72
8653;BME280;4364;52.426;9.424;2023-12-28T00:43:40;100364.94;;;8.07;96.72
8653;BME280;4364;52.426;9.424;2023-12-28T00:46:06;100375.75;;;7.92;98.48
8653;BME280;4364;52.426;9.424;2023-12-28T00:48:32;100379.50;;;7.81;100.00
8653;BME280;4364;52.426;9.424;2023-12-28T00:51:02;100385.41;;;7.67;100.00
8653;BME280;4364;52.426;9.424;2023-12-28T00:53:28;100385.66;;;7.60;100.00
8653;BME280;4364;52.426;9.424;2023-12-28T00:55:55;100401.88;;;7.55;100.00
8653;BME280;4364;52.426;9.424;2023-12-28T00:58:21;100398.03;;;7.51;100.00
8653;BME280;4364;52.426;9.424;2023-12-28T01:00:48;100388.25;;;7.40;100.00
8653;BME280;4364;52.426;9.424;2023-12-28T01:03:14;100390.69;;;7.41;100.00
8653;BME280;4364;52.426;9.424;2023-12-28T01:05:41;100403.44;;;7.46;100.00
8653;BME280;4364;52.426;9.424;2023-12-28T01:08:07;100409.97;;;7.50;100.00
8653;BME280;4364;52.426;9.424;2023-12-28T01:10:34;100399.41;;;7.54;100.00
8653;BME280;4364;52.426;9.424;2023-12-28T01:13:01;100402.63;;;7.46;100.00
8653;BME280;4364;52.426;9.424;2023-12-28T01:15:27;100399.94;;;7.51;100.00
8653;BME280;4364;52.426;9.424;2023-12-28T01:17:54;100373.94;;;7.50;100.00
8653;BME280;4364;52.426;9.424;2023-12-28T01:20:21;100376.13;;;7.53;100.00
8653;BME280;4364;52.426;9.424;2023-12-28T01:22:47;100385.06;;;7.53;100.00
8653;BME280;4364;52.426;9.424;2023-12-28T01:25:16;100386.97;;;7.58;100.00
8653;BME280;4364;52.426;9.424;2023-12-28T01:27:42;100377.00;;;7.58;100.00
8653;BME280;4364;52.426;9.424;2023-12-28T01:30:09;100387.00;;;7.63;100.00
8653;BME280;4364;52.426;9.424;2023-12-28T01:32:36;100391.63;;;7.68;100.00
8653;BME280;4364;52.426;9.424;2023-12-28T01:35:03;100400.25;;;7.59;100.00
8653;BME280;4364;52.426;9.424;2023-12-28T01:37:30;100395.13;;;7.63;100.00
8653;BME280;4364;52.426;9.424;2023-12-28T01:40:00;100380.00;;;7.67;100.00
8653;BME280;4364;52.426;9.424;2023-12-28T01:42:29;100377.00;;;7.64;100.00
8653;BME280;4364;52.426;9.424;2023-12-28T01:44:57;100373.47;;;7.63;100.00
8653;BME280;4364;52.426;9.424;2023-12-28T01:47:27;100390.56;;;7.69;100.00
8653;BME280;4364;52.426;9.424;2023-12-28T01:49:55;100392.16;;;7.70;100.00
8653;BME280;4364;52.426;9.424;2023-12-28T01:52:22;100395.19;;;7.78;100.00
8653;BME280;4364;52.426;9.424;2023-12-28T01:54:50;100393.53;;;7.72;100.00
8653;BME280;4364;52.426;9.424;2023-12-28T01:57:17;100390.84;;;7.77;100.00
8653;BME280;4364;52.426;9.424;2023-12-28T01:59:44;100389.53;;;7.85;100.00
8653;BME280;4364;52.426;9.424;2023-12-28T02:02:11;100397.06;;;7.78;100.00
8653;BME280;4364;52.426;9.424;2023-12-28T02:04:37;100400.56;;;7.73;100.00
8653;BME280;4364;52.426;9.424;2023-12-28T02:07:04;100409.78;;;7.77;100.00
8653;BME280;4364;52.426;9.424;2023-12-28T02:09:31;100410.31;;;7.74;100.00
8653;BME280;4364;52.426;9.424;2023-12-28T02:11:59;100414.38;;;7.72;100.00
8653;BME280;4364;52.426;9.424;2023-12-28T02:14:26;100416.25;;;7.66;100.00
8653;BME280;4364;52.426;9.424;2023-12-28T02:19:57;100422.81;;;7.86;100.00
8653;BME280;4364;52.426;9.424;2023-12-28T02:22:26;100430.41;;;7.84;100.00
8653;BME280;4364;52.426;9.424;2023-12-28T02:27:27;100427.44;;;7.90;100.00
8653;BME280;4364;52.426;9.424;2023-12-28T02:29:55;100422.53;;;7.82;100.00
8653;BME280;4364;52.426;9.424;2023-12-28T02:32:27;100431.47;;;7.88;100.00
8653;BME280;4364;52.426;9.424;2023-12-28T02:35:00;100447.97;;;7.81;100.00
8653;BME280;4364;52.426;9.424;2023-12-28T02:37:29;100433.91;;;7.84;100.00
8653;BME280;4364;52.426;9.424;2023-12-28T02:39:57;100450.66;;;7.76;100.00
8653;BME280;4364;52.426;9.424;2023-12-28T02:42:23;100442.31;;;7.88;100.00
8653;BME280;4364;52.426;9.424;2023-12-28T02:44:50;100467.22;;;7.90;100.00
8653;BME280;4364;52.426;9.424;2023-12-28T02:47:17;100464.78;;;7.93;100.00
8653;BME280;4364;52.426;9.424;2023-12-28T02:49:43;100458.84;;;7.91;100.00
8653;BME280;4364;52.426;9.424;2023-12-28T02:52:10;100455.34;;;7.96;100.00
8653;BME280;4364;52.426;9.424;2023-12-28T02:54:36;100449.66;;;7.97;100.00
8653;BME280;4364;52.426;9.424;2023-12-28T02:57:03;100440.75;;;8.02;100.00
8653;BME280;4364;52.426;9.424;2023-12-28T02:59:29;100445.06;;;8.03;100.00
8653;BME280;4364;52.426;9.424;2023-12-28T03:01:56;100446.72;;;8.04;100.00
8653;BME280;4364;52.426;9.424;2023-12-28T03:04:22;100450.47;;;8.03;100.00
8653;BME280;4364;52.426;9.424;2023-12-28T03:06:51;100435.09;;;8.09;100.00
8653;BME280;4364;52.426;9.424;2023-12-28T03:09:17;100429.94;;;8.07;100.00
8653;BME280;4364;52.426;9.424;2023-12-28T03:11:44;100433.19;;;8.14;100.00
8653;BME280;4364;52.426;9.424;2023-12-28T03:14:10;100430.47;;;8.14;100.00
8653;BME280;4364;52.426;9.424;2023-12-28T03:16:37;100438.91;;;8.23;100.00
8653;BME280;4364;52.426;9.424;2023-12-28T03:19:03;100441.88;;;8.22;100.00
8653;BME280;4364;52.426;9.424;2023-12-28T03:21:30;100436.41;;;8.06;100.00
8653;BME280;4364;52.426;9.424;2023-12-28T03:23:56;100445.06;;;8.03;100.00
8653;BME280;4364;52.426;9.424;2023-12-28T03:26:23;100440.53;;;8.19;100.00
8653;BME280;4364;52.426;9.424;2023-12-28T03:28:50;100443.75;;;8.16;100.00
8653;BME280;4364;52.426;9.424;2023-12-28T03:31:16;100436.72;;;8.20;100.00
8653;BME280;4364;52.426;9.424;2023-12-28T03:33:43;100437.81;;;8.19;100.00
8653;BME280;4364;52.426;9.424;2023-12-28T03:36:20;100443.22;;;8.14;100.00
8653;BME280;4364;52.426;9.424;2023-12-28T03:38:47;100451.63;;;8.23;100.00
8653;BME280;4364;52.426;9.424;2023-12-28T03:41:18;100459.50;;;8.29;100.00
8653;BME280;4364;52.426;9.424;2023-12-28T03:43:45;100447.03;;;8.28;100.00
8653;BME280;4364;52.426;9.424;2023-12-28T03:46:12;100446.22;;;8.23;100.00
8653;BME280;4364;52.426;9.424;2023-12-28T03:48:39;100440.00;;;8.32;100.00
8653;BME280;4364;52.426;9.424;2023-12-28T03:51:06;100441.34;;;8.30;100.00
8653;BME280;4364;52.426;9.424;2023-12-28T03:53:32;100453.00;;;8.30;100.00
8653;BME280;4364;52.426;9.424;2023-12-28T03:55:59;100449.75;;;8.33;100.00
8653;BME280;4364;52.426;9.424;2023-12-28T03:58:26;100445.69;;;8.31;100.00
8653;BME280;4364;52.426;9.424;2023-12-28T04:00:52;100452.75;;;8.37;100.00
8653;BME280;4364;52.426;9.424;2023-12-28T04:03:19;100458.13;;;8.22;100.00
8653;BME280;4364;52.426;9.424;2023-12-28T04:05:46;100447.59;;;8.35;100.00
8653;BME280;4364;52.426;9.424;2023-12-28T04:08:13;100456.81;;;8.34;100.00
8653;BME280;4364;52.426;9.424;2023-12-28T04:10:39;100443.53;;;8.38;100.00
8653;BME280;4364;52.426;9.424;2023-12-28T04:13:06;100450.31;;;8.25;100.00
8653;BME280;4364;52.426;9.424;2023-12-28T04:15:33;100433.53;;;8.39;100.00
8653;BME280;4364;52.426;9.424;2023-12-28T04:17:59;100434.59;;;8.38;100.00
8653;BME280;4364;52.426;9.424;2023-12-28T04:20:27;100426.19;;;8.34;100.00
8653;BME280;4364;52.426;9.424;2023-12-28T04:22:54;100432.97;;;8.42;100.00
8653;BME280;4364;52.426;9.424;2023-12-28T04:25:20;100434.06;;;8.41;100.00
8653;BME280;4364;52.426;9.424;2023-12-28T04:27:47;100436.00;;;8.45;100.00
8653;BME280;4364;52.426;9.424;2023-12-28T04:30:13;100423.53;;;8.44;100.00
8653;BME280;4364;52.426;9.424;2023-12-28T04:32:41;100439.22;;;8.42;100.00
8653;BME280;4364;52.426;9.424;2023-12-28T04:35:08;100425.44;;;8.49;100.00
8653;BME280;4364;52.426;9.424;2023-12-28T04:37:35;100436.50;;;8.42;100.00
8653;BME280;4364;52.426;9.424;2023-12-28T04:40:02;100430.81;;;8.39;100.00
8653;BME280;4364;52.426;9.424;2023-12-28T04:42:31;100437.56;;;8.41;100.00
8653;BME280;4364;52.426;9.424;2023-12-28T04:44:57;100435.41;;;8.33;100.00
8653;BME280;4364;52.426;9.424;2023-12-28T04:47:24;100437.31;;;8.38;100.00
8653;BME280;4364;52.426;9.424;2023-12-28T04:49:51;100436.81;;;8.46;100.00
8653;BME280;4364;52.426;9.424;2023-12-28T04:52:17;100430.25;;;8.37;100.00
8653;BME280;4364;52.426;9.424;2023-12-28T04:54:44;100435.16;;;8.45;100.00
8653;BME280;4364;52.426;9.424;2023-12-28T04:57:10;100429.50;;;8.51;100.00
8653;BME280;4364;52.426;9.424;2023-12-28T04:59:40;100453.88;;;8.46;100.00
8653;BME280;4364;52.426;9.424;2023-12-28T05:02:07;100443.56;;;8.43;100.00
8653;BME280;4364;52.426;9.424;2023-12-28T05:04:36;100436.78;;;8.35;100.00
8653;BME280;4364;52.426;9.424;2023-12-28T05:07:04;100438.16;;;8.43;100.00
8653;BME280;4364;52.426;9.424;2023-12-28T05:09:31;100439.75;;;8.34;100.00
8653;BME280;4364;52.426;9.424;2023-12-28T05:11:57;100434.09;;;8.51;100.00
8653;BME280;4364;52.426;9.424;2023-12-28T05:14:24;100452.81;;;8.47;100.00
8653;BME280;4364;52.426;9.424;2023-12-28T05:16:51;100439.53;;;8.56;100.00
8653;BME280;4364;52.426;9.424;2023-12-28T05:19:17;100442.50;;;8.60;100.00
8653;BME280;4364;52.426;9.424;2023-12-28T05:21:44;100450.09;;;8.58;100.00
8653;BME280;4364;52.426;9.424;2023-12-28T05:24:10;100450.38;;;8.56;100.00
8653;BME280;4364;52.426;9.424;2023-12-28T05:26:37;100461.22;;;8.61;100.00
8653;BME280;4364;52.426;9.424;2023-12-28T05:29:04;100472.06;;;8.66;100.00
8653;BME280;4364;52.426;9.424;2023-12-28T05:31:30;100478.31;;;8.72;100.00
8653;BME280;4364;52.426;9.424;2023-12-28T05:33:57;100468.00;;;8.79;100.00
8653;BME280;4364;52.426;9.424;2023-12-28T05:36:25;100474.50;;;8.78;100.00
8653;BME280;4364;52.426;9.424;2023-12-28T05:38:51;100482.91;;;8.71;100.00
8653;BME280;4364;52.426;9.424;2023-12-28T05:41:18;100485.09;;;8.85;100.00
8653;BME280;4364;52.426;9.424;2023-12-28T05:43:44;100492.41;;;8.84;100.00
8653;BME280;4364;52.426;9.424;2023-12-28T05:46:11;100491.88;;;8.87;100.00
8653;BME280;4364;52.426;9.424;2023-12-28T05:48:37;100479.41;;;8.92;100.00
8653;BME280;4364;52.426;9.424;2023-12-28T05:51:04;100474.25;;;8.85;100.00
8653;BME280;4364;52.426;9.424;2023-12-28T05:53:31;100482.66;;;8.83;100.00
8653;BME280;4364;52.426;9.424;2023-12-28T05:55:57;100471.25;;;8.86;99.89
8653;BME280;4364;52.426;9.424;2023-12-28T05:58:29;100480.50;;;8.96;98.86
8653;BME280;4364;52.426;9.424;2023-12-28T06:00:56;100465.84;;;8.92;98.86
8653;BME280;4364;52.426;9.424;2023-12-28T06:03:22;100475.88;;;8.91;99.14
8653;BME280;4364;52.426;9.424;2023-12-28T06:05:54;100473.16;;;8.91;98.74
8653;BME280;4364;52.426;9.424;2023-12-28T06:08:22;100480.50;;;8.96;98.63
8653;BME280;4364;52.426;9.424;2023-12-28T06:10:52;100477.78;;;8.85;98.67
8653;BME280;4364;52.426;9.424;2023-12-28T06:13:18;100478.06;;;8.89;98.84
8653;BME280;4364;52.426;9.424;2023-12-28T06:15:45;100484.81;;;8.86;98.88
8653;BME280;4364;52.426;9.424;2023-12-28T06:18:11;100491.88;;;8.82;99.35
8653;BME280;4364;52.426;9.424;2023-12-28T06:20:38;100497.56;;;8.81;99.71
8653;BME280;4364;52.426;9.424;2023-12-28T06:23:06;100511.66;;;8.78;100.00
8653;BME280;4364;52.426;9.424;2023-12-28T06:25:34;100507.03;;;8.78;99.71
8653;BME280;4364;52.426;9.424;2023-12-28T06:28:00;100492.41;;;8.79;99.44
8653;BME280;4364;52.426;9.424;2023-12-28T06:30:29;100503.25;;;8.69;99.48
8653;BME280;4364;52.426;9.424;2023-12-28T06:32:55;100523.84;;;8.75;99.39
8653;BME280;4364;52.426;9.424;2023-12-28T06:35:22;100507.56;;;8.65;99.81
8653;BME280;4364;52.426;9.424;2023-12-28T06:37:48;100516.81;;;8.79;99.21
8653;BME280;4364;52.426;9.424;2023-12-28T06:40:15;100516.28;;;8.77;98.98
8653;BME280;4364;52.426;9.424;2023-12-28T06:42:41;100487.25;;;8.62;99.98
8653;BME280;4364;52.426;9.424;2023-12-28T06:45:10;100500.28;;;8.65;99.41
8653;BME280;4364;52.426;9.424;2023-12-28T06:47:36;100501.09;;;8.76;99.09
8653;BME280;4364;52.426;9.424;2023-12-28T06:50:04;100486.16;;;8.74;98.84
8653;BME280;4364;52.426;9.424;2023-12-28T06:52:31;100491.31;;;8.80;98.18
8653;BME280;4364;52.426;9.424;2023-12-28T06:54:58;100499.47;;;8.85;98.08
8653;BME280;4364;52.426;9.424;2023-12-28T06:57:24;100482.09;;;8.86;97.89
8653;BME280;4364;52.426;9.424;2023-12-28T06:59:51;100500.28;;;8.81;97.91
8653;BME280;4364;52.426;9.424;2023-12-28T07:02:17;100488.06;;;8.88;97.17
8653;BME280;4364;52.426;9.424;2023-12-28T07:04:44;100501.63;;;8.78;97.40
8653;BME280;4364;52.426;9.424;2023-12-28T07:07:10;100493.47;;;8.78;97.25
8653;BME280;4364;52.426;9.424;2023-12-28T07:09:37;100503.78;;;8.86;97.35
8653;BME280;4364;52.426;9.424;2023-12-28T07:12:04;100504.34;;;8.83;97.25
8653;BME280;4364;52.426;9.424;2023-12-28T07:14:31;100501.34;;;8.85;97.31
8653;BME280;4364;52.426;9.424;2023-12-28T07:16:58;100511.13;;;8.86;97.30
8653;BME280;4364;52.426;9.424;2023-12-28T07:19:24;100510.31;;;8.96;96.59
8653;BME280;4364;52.426;9.424;2023-12-28T07:21:51;100502.19;;;9.01;96.08
8653;BME280;4364;52.426;9.424;2023-12-28T07:24:17;100507.06;;;8.99;96.27
8653;BME280;4364;52.426;9.424;2023-12-28T07:26:44;100499.47;;;8.96;96.16
8653;BME280;4364;52.426;9.424;2023-12-28T07:29:10;100516.28;;;8.93;96.27
8653;BME280;4364;52.426;9.424;2023-12-28T07:31:37;100507.03;;;8.94;96.37
8653;BME280;4364;52.426;9.424;2023-12-28T07:34:04;100509.50;;;9.00;95.64
8653;BME280;4364;52.426;9.424;2023-12-28T07:36:30;100521.72;;;9.03;95.76
8653;BME280;4364;52.426;9.424;2023-12-28T07:38:57;100523.63;;;9.02;95.53
8653;BME280;4364;52.426;9.424;2023-12-28T07:41:24;100508.16;;;9.03;95.38
8653;BME280;4364;52.426;9.424;2023-12-28T07:43:50;100504.91;;;9.06;95.26
8653;BME280;4364;52.426;9.424;2023-12-28T07:46:17;100521.72;;;8.98;95.89
8653;BME280;4364;52.426;9.424;2023-12-28T07:48:43;100515.22;;;8.99;95.43
8653;BME280;4364;52.426;9.424;2023-12-28T07:51:13;100524.41;;;9.03;95.30
8653;BME280;4364;52.426;9.424;2023-12-28T07:53:39;100523.06;;;9.00;95.30
8653;BME280;4364;52.426;9.424;2023-12-28T07:56:06;100529.84;;;9.03;95.09
8653;BME280;4364;52.426;9.424;2023-12-28T07:58:33;100531.75;;;9.07;94.62
8653;BME280;4364;52.426;9.424;2023-12-28T08:00:59;100525.22;;;9.03;94.95
8653;BME280;4364;52.426;9.424;2023-12-28T08:03:27;100540.69;;;9.03;94.12
8653;BME280;4364;52.426;9.424;2023-12-28T08:05:54;100556.97;;;9.13;93.61
8653;BME280;4364;52.426;9.424;2023-12-28T08:08:20;100561.88;;;9.16;92.85
8653;BME280;4364;52.426;9.424;2023-12-28T08:10:47;100553.19;;;9.14;93.13
8653;BME280;4364;52.426;9.424;2023-12-28T08:13:13;100562.41;;;9.08;93.75
8653;BME280;4364;52.426;9.424;2023-12-28T08:15:40;100556.97;;;9.08;93.53
8653;BME280;4364;52.426;9.424;2023-12-28T08:18:06;100551.00;;;9.06;94.37
8653;BME280;4364;52.426;9.424;2023-12-28T08:20:33;100561.06;;;9.11;94.02
8653;BME280;4364;52.426;9.424;2023-12-28T08:22:59;100560.78;;;9.12;93.76
8653;BME280;4364;52.426;9.424;2023-12-28T08:25:42;100569.72;;;9.13;93.10
8653;BME280;4364;52.426;9.424;2023-12-28T08:28:09;100563.19;;;9.08;93.61
8653;BME280;4364;52.426;9.424;2023-12-28T08:30:35;100561.31;;;9.14;92.87
8653;BME280;4364;52.426;9.424;2023-12-28T08:33:02;100556.72;;;9.15;93.03
8653;BME280;4364;52.426;9.424;2023-12-28T08:35:29;100561.59;;;9.07;93.13
8653;BME280;4364;52.426;9.424;2023-12-28T08:37:56;100564.56;;;9.01;93.65
8653;BME280;4364;52.426;9.424;2023-12-28T08:40:22;100555.91;;;9.09;93.44
8653;BME280;4364;52.426;9.424;2023-12-28T08:42:48;100554.25;;;9.13;93.09
8653;BME280;4364;52.426;9.424;2023-12-28T08:45:15;100546.94;;;9.03;93.47
8653;BME280;4364;52.426;9.424;2023-12-28T08:47:41;100568.88;;;9.02;93.46
8653;BME280;4364;52.426;9.424;2023-12-28T08:50:08;100562.13;;;9.04;92.66
8653;BME280;4364;52.426;9.424;2023-12-28T08:52:35;100564.31;;;9.07;93.10
8653;BME280;4364;52.426;9.424;2023-12-28T08:55:03;100574.88;;;8.99;93.36
8653;BME280;4364;52.426;9.424;2023-12-28T08:57:29;100569.19;;;9.11;92.41
8653;BME280;4364;52.426;9.424;2023-12-28T09:00:08;100571.91;;;9.11;92.75
8653;BME280;4364;52.426;9.424;2023-12-28T09:02:37;100581.94;;;9.15;92.64
8653;BME280;4364;52.426;9.424;2023-12-28T09:05:04;100573.53;;;9.17;91.98
8653;BME280;4364;52.426;9.424;2023-12-28T09:07:30;100582.50;;;9.22;92.03
8653;BME280;4364;52.426;9.424;2023-12-28T09:09:57;100569.19;;;9.11;92.45
8653;BME280;4364;52.426;9.424;2023-12-28T09:12:24;100577.34;;;9.21;91.51
8653;BME280;4364;52.426;9.424;2023-12-28T09:14:50;100575.44;;;9.32;90.96
8653;BME280;4364;52.426;9.424;2023-12-28T09:17:22;100572.97;;;9.25;91.22
8653;BME280;4364;52.426;9.424;2023-12-28T09:19:50;100565.09;;;9.34;90.70
8653;BME280;4364;52.426;9.424;2023-12-28T09:22:16;100574.09;;;9.34;90.39
8653;BME280;4364;52.426;9.424;2023-12-28T09:24:43;100580.59;;;9.38;90.09
8653;BME280;4364;52.426;9.424;2023-12-28T09:27:09;100571.63;;;9.38;89.64
8653;BME280;4364;52.426;9.424;2023-12-28T09:29:36;100573.53;;;9.42;89.24
8653;BME280;4364;52.426;9.424;2023-12-28T09:32:03;100575.97;;;9.49;89.25
8653;BME280;4364;52.426;9.424;2023-12-28T09:34:30;100574.88;;;9.40;90.07
8653;BME280;4364;52.426;9.424;2023-12-28T09:36:56;100578.44;;;9.45;89.92
8653;BME280;4364;52.426;9.424;2023-12-28T09:39:23;100564.03;;;9.40;89.16
8653;BME280;4364;52.426;9.424;2023-12-28T09:41:55;100573.53;;;9.48;88.41
8653;BME280;4364;52.426;9.424;2023-12-28T09:44:24;100571.09;;;9.46;88.63
8653;BME280;4364;52.426;9.424;2023-12-28T09:46:51;100570.00;;;9.47;89.31
8653;BME280;4364;52.426;9.424;2023-12-28T09:49:21;100572.16;;;9.50;88.80
8653;BME280;4364;52.426;9.424;2023-12-28T09:51:48;100587.09;;;9.58;88.13
8653;BME280;4364;52.426;9.424;2023-12-28T09:54:14;100589.53;;;9.59;88.89
8653;BME280;4364;52.426;9.424;2023-12-28T09:56:41;100574.06;;;9.60;87.99
8653;BME280;4364;52.426;9.424;2023-12-28T09:59:09;100584.91;;;9.65;87.73
8653;BME280;4364;52.426;9.424;2023-12-28T10:01:36;100584.63;;;9.72;87.11
8653;BME280;4364;52.426;9.424;2023-12-28T10:04:03;100559.66;;;9.75;86.55
8653;BME280;4364;52.426;9.424;2023-12-28T10:06:30;100556.94;;;9.70;86.99
8653;BME280;4364;52.426;9.424;2023-12-28T10:08:56;100554.75;;;9.72;86.79
8653;BME280;4364;52.426;9.424;2023-12-28T10:11:23;100544.44;;;9.74;87.05
8653;BME280;4364;52.426;9.424;2023-12-28T10:13:50;100544.44;;;9.79;86.09
8653;BME280;4364;52.426;9.424;2023-12-28T10:16:16;100545.00;;;9.76;86.69
8653;BME280;4364;52.426;9.424;2023-12-28T10:18:44;100543.91;;;9.72;86.63
8653;BME280;4364;52.426;9.424;2023-12-28T10:21:11;100539.56;;;9.71;86.72
8653;BME280;4364;52.426;9.424;2023-12-28T10:23:38;100534.94;;;9.76;86.69
8653;BME280;4364;52.426;9.424;2023-12-28T10:26:05;100543.88;;;9.82;86.15
8653;BME280;4364;52.426;9.424;2023-12-28T10:28:32;100544.69;;;9.88;85.60
8653;BME280;4364;52.426;9.424;2023-12-28T10:31:00;100557.44;;;9.97;84.92
8653;BME280;4364;52.426;9.424;2023-12-28T10:33:27;100550.31;;;10.07;84.21
8653;BME280;4364;52.426;9.424;2023-12-28T10:36:05;100556.59;;;10.02;84.32
8653;BME280;4364;52.426;9.424;2023-12-28T10:38:36;100548.41;;;10.07;84.45
8653;BME280;4364;52.426;9.424;2023-12-28T10:41:07;100554.41;;;10.09;84.13
8653;BME280;4364;52.426;9.424;2023-12-28T10:43:53;100558.47;;;10.07;83.89
8653;BME280;4364;52.426;9.424;2023-12-28T10:46:25;100559.56;;;10.11;83.59
8653;BME280;4364;52.426;9.424;2023-12-28T10:48:57;100554.69;;;10.02;83.65
8653;BME280;4364;52.426;9.424;2023-12-28T10:51:25;100559.56;;;10.00;84.46
8653;BME280;4364;52.426;9.424;2023-12-28T10:56:50;100556.00;;;10.10;83.98
8653;BME280;4364;52.426;9.424;2023-12-28T10:59:35;100566.34;;;10.08;83.81
8653;BME280;4364;52.426;9.424;2023-12-28T11:02:06;100557.34;;;10.18;83.25
8653;BME280;4364;52.426;9.424;2023-12-28T11:04:41;100563.09;;;10.06;83.76
8653;BME280;4364;52.426;9.424;2023-12-28T11:07:10;100541.38;;;10.01;83.78
8653;BME280;4364;52.426;9.424;2023-12-28T11:09:41;100558.75;;;10.05;83.23
8653;BME280;4364;52.426;9.424;2023-12-28T11:12:08;100547.38;;;9.98;83.74
8653;BME280;4364;52.426;9.424;2023-12-28T11:14:42;100559.31;;;9.97;84.23
8653;BME280;4364;52.426;9.424;2023-12-28T11:17:09;100549.56;;;9.96;84.08
8653;BME280;4364;52.426;9.424;2023-12-28T11:19:36;100549.00;;;9.94;83.93
8653;BME280;4364;52.426;9.424;2023-12-28T11:22:03;100549.25;;;10.02;83.80
8653;BME280;4364;52.426;9.424;2023-12-28T11:24:31;100546.28;;;9.94;83.81
8653;BME280;4364;52.426;9.424;2023-12-28T11:26:58;100548.44;;;9.97;84.32
8653;BME280;4364;52.426;9.424;2023-12-28T11:29:25;100546.84;;;9.96;84.24
8653;BME280;4364;52.426;9.424;2023-12-28T11:31:52;100550.06;;;10.03;83.63
8653;BME280;4364;52.426;9.424;2023-12-28T11:34:30;100545.69;;;10.07;83.82
8653;BME280;4364;52.426;9.424;2023-12-28T11:37:00;100552.22;;;10.11;84.35
8653;BME280;4364;52.426;9.424;2023-12-28T11:39:35;100545.44;;;10.04;84.30
8653;BME280;4364;52.426;9.424;2023-12-28T11:42:04;100547.06;;;10.05;83.90
8653;BME280;4364;52.426;9.424;2023-12-28T11:44:36;100543.84;;;9.97;84.38
8653;BME280;4364;52.426;9.424;2023-12-28T11:47:13;100535.41;;;10.04;84.08
8653;BME280;4364;52.426;9.424;2023-12-28T11:49:40;100535.44;;;9.99;83.88
8653;BME280;4364;52.426;9.424;2023-12-28T11:52:08;100546.00;;;10.00;84.27
8653;BME280;4364;52.426;9.424;2023-12-28T11:54:35;100536.00;;;9.91;84.60
8653;BME280;4364;52.426;9.424;2023-12-28T11:57:03;100531.63;;;9.90;84.65
8653;BME280;4364;52.426;9.424;2023-12-28T11:59:31;100543.56;;;9.99;84.57
8653;BME280;4364;52.426;9.424;2023-12-28T12:01:59;100546.53;;;10.02;84.14
8653;BME280;4364;52.426;9.424;2023-12-28T12:04:26;100527.25;;;10.09;83.84
8653;BME280;4364;52.426;9.424;2023-12-28T12:06:52;100531.88;;;9.98;84.08
8653;BME280;4364;52.426;9.424;2023-12-28T12:09:20;100543.84;;;9.97;84.17
8653;BME280;4364;52.426;9.424;2023-12-28T12:11:49;100529.41;;;10.02;84.00
8653;BME280;4364;52.426;9.424;2023-12-28T12:14:15;100523.19;;;9.96;84.02
8653;BME280;4364;52.426;9.424;2023-12-28T12:16:42;100527.78;;;10.06;83.31
8653;BME280;4364;52.426;9.424;2023-12-28T12:19:09;100509.84;;;10.05;83.67
8653;BME280;4364;52.426;9.424;2023-12-28T12:21:35;100512.00;;;10.13;82.88
8653;BME280;4364;52.426;9.424;2023-12-28T12:24:02;100514.72;;;10.08;83.31
8653;BME280;4364;52.426;9.424;2023-12-28T12:26:29;100500.03;;;10.14;83.40
8653;BME280;4364;52.426;9.424;2023-12-28T12:28:57;100498.41;;;10.13;83.23
8653;BME280;4364;52.426;9.424;2023-12-28T12:31:24;100499.75;;;10.16;82.58
8653;BME280;4364;52.426;9.424;2023-12-28T12:33:52;100498.38;;;10.18;82.05
8653;BME280;4364;52.426;9.424;2023-12-28T12:36:19;100492.13;;;10.18;82.09
8653;BME280;4364;52.426;9.424;2023-12-28T12:38:48;100493.78;;;10.14;82.42
8653;BME280;4364;52.426;9.424;2023-12-28T12:41:14;100493.50;;;10.15;82.15
8653;BME280;4364;52.426;9.424;2023-12-28T12:43:41;100488.03;;;10.20;82.31
8653;BME280;4364;52.426;9.424;2023-12-28T12:46:08;100486.97;;;10.16;82.11
8653;BME280;4364;52.426;9.424;2023-12-28T12:48:34;100487.47;;;10.24;82.33
8653;BME280;4364;52.426;9.424;2023-12-28T12:51:03;100512.22;;;10.22;81.76
8653;BME280;4364;52.426;9.424;2023-12-28T12:53:36;100496.75;;;10.23;81.56
8653;BME280;4364;52.426;9.424;2023-12-28T12:56:04;100496.44;;;10.29;81.72
8653;BME280;4364;52.426;9.424;2023-12-28T12:58:31;100502.16;;;10.28;80.61
8653;BME280;4364;52.426;9.424;2023-12-28T13:01:03;100502.72;;;10.25;81.03
8653;BME280;4364;52.426;9.424;2023-12-28T13:03:29;100510.59;;;10.26;80.75
8653;BME280;4364;52.426;9.424;2023-12-28T13:05:56;100502.19;;;10.23;81.18
8653;BME280;4364;52.426;9.424;2023-12-28T13:08:23;100483.19;;;10.17;81.10
8653;BME280;4364;52.426;9.424;2023-12-28T13:10:50;100489.13;;;10.25;80.71
8653;BME280;4364;52.426;9.424;2023-12-28T13:13:16;100489.94;;;10.20;81.30
8653;BME280;4364;52.426;9.424;2023-12-28T13:15:43;100499.19;;;10.24;80.35
8653;BME280;4364;52.426;9.424;2023-12-28T13:18:10;100501.41;;;10.12;81.23
8653;BME280;4364;52.426;9.424;2023-12-28T13:20:36;100480.75;;;10.16;81.41
8653;BME280;4364;52.426;9.424;2023-12-28T13:23:03;100487.53;;;10.13;81.58
8653;BME280;4364;52.426;9.424;2023-12-28T13:25:33;100489.97;;;10.15;81.46